Levi, Texas
Current Conditions -  °F | °C
As of 9:55 AM on Thursday 27 Nov 2014 (Local Time) from KPWG Reporting Station
Clear Clear  
Wind Chill: 44°   Ceiling: Unl
Heat Index: 48°   Visibility: 10mi
Dew Point: 28°   Wind: 9mph
Humidity: 46%   Direction: 40°NE
Pressure: 30.56"   Gusts: NA
Location:  31.3976°N, 97.22°W
Report Text: KPWG 271555Z AUTO 04008KT 10SM CLR 09/M02 A3056 RMK AO1
Loading
Personal Weather Stations






























Interactive Weather Map New forecast layout! Learn more

10-Day Weather Forecast

Advertisements
Track Severe Weather on mobile